Betagas — V2KA8 — position and weather

sailwx.info

Track history (hours):
 
Tides and Currents Weather Stations Pressure Air Temp Water Temp Dewpoint Dewpoint Depression Visibility Wind Speed Wind Dir Waves Ship Positions

Betagas

Last reported at 2014-Jul-23 14:27 UTC. Time now 2014-Jul-23 15:34 UTC.
Position N 53°39' W 000°13'.

Length 114.6 m; beam 15.7 m; draft 7.4 m.

Type: Tanker. MMSI: 304050636.

Date/timePositionNaut miles runAvg speedWind from/ knotsBaromVisibWave heightAir tempDewpointWater temp
2014-Jul-23 14:27N 53°39' W 000°13'0 0.0
2014-Jul-23 13:26N 53°39' W 000°13'0 0.0
2014-Jul-23 12:30N 53°39' W 000°13'0 0.0
2014-Jul-23 11:33N 53°39' W 000°13'0 0.1
2014-Jul-23 10:34N 53°39' W 000°12'8 8.2
2014-Jul-23 09:33N 53°35' E 000°00'9 9.1
2014-Jul-23 08:33N 53°33' E 000°15'9 8.4
2014-Jul-23 07:33N 53°36' E 000°29'0 0.3
2014-Jul-23 06:32N 53°36' E 000°29'0 0.1
2014-Jul-23 05:29N 53°36' E 000°29'0 0.0
2014-Jul-23 04:29N 53°36' E 000°29'0 0.0
2014-Jul-23 03:32N 53°36' E 000°29'0 0.0
2014-Jul-23 02:32N 53°36' E 000°29'0 0.0
2014-Jul-23 01:32N 53°36' E 000°29'0 0.0
2014-Jul-23 00:32N 53°36' E 000°29'0 0.0
2014-Jul-22 23:08N 53°36' E 000°29'0 0.1
2014-Jul-22 21:11N 53°36' E 000°29'0 0.0
2014-Jul-22 19:26N 53°36' E 000°29'0 0.1
2014-Jul-22 16:05N 53°36' E 000°29'0 0.0
2014-Jul-22 15:32N 53°36' E 000°29'0 0.0
2014-Jul-22 14:32N 53°36' E 000°29'0 0.0
2014-Jul-22 13:32N 53°36' E 000°29'0 0.0
2014-Jul-22 12:32N 53°36' E 000°29'0 0.1
2014-Jul-22 11:20N 53°36' E 000°29'0 0.0
2014-Jul-22 10:32N 53°36' E 000°29'0 0.1
2014-Jul-22 08:20N 53°36' E 000°29'0 0.0
2014-Jul-22 07:20N 53°36' E 000°29'0 0.0
2014-Jul-22 05:11N 53°36' E 000°29'0 0.2
2014-Jul-22 04:29N 53°36' E 000°29'0 0.0
2014-Jul-22 03:11N 53°36' E 000°29'0 0.0
2014-Jul-22 02:26N 53°36' E 000°29'0 0.0
2014-Jul-22 00:29N 53°36' E 000°29'0 0.0
2014-Jul-21 23:32N 53°36' E 000°29'0 0.0
2014-Jul-21 22:29N 53°36' E 000°29'0 0.1
2014-Jul-21 20:08N 53°36' E 000°29'0 0.0
2014-Jul-21 19:08N 53°36' E 000°29'0 0.0
2014-Jul-21 18:05N 53°36' E 000°29'0 0.0
2014-Jul-21 17:23N 53°36' E 000°29'0 0.0
2014-Jul-21 16:26N 53°36' E 000°29'0 0.2
2014-Jul-21 15:23N 53°36' E 000°28'0 0.0
2014-Jul-21 14:29N 53°36' E 000°29'0 0.0
2014-Jul-21 13:29N 53°36' E 000°29'0 0.1
2014-Jul-21 12:29N 53°36' E 000°29'7 7.6
2014-Jul-21 11:31N 53°31' E 000°37'1010.4
2014-Jul-21 10:32N 53°27' E 000°53'2611.4
2014-Jul-21 08:16N 53°08' E 001°22'912.2
2014-Jul-21 07:33N 53°00' E 001°29'1211.7
2014-Jul-21 06:33N 52°52' E 001°43'1110.6
2014-Jul-21 05:33N 52°46' E 001°58'6310.1
2014-Jul-20 23:17N 51°50' E 002°45'811.4
2014-Jul-20 22:33N 51°48' E 002°58'1111.3
2014-Jul-20 21:33N 51°44' E 003°15'1211.8
2014-Jul-20 20:33N 51°34' E 003°25'1110.7
2014-Jul-20 19:33N 51°26' E 003°38'9 9.3
2014-Jul-20 18:33N 51°21' E 003°50'9 8.8
2014-Jul-20 17:34N 51°26' E 004°02'7 7.3
2014-Jul-20 16:33N 51°23' E 004°13'4 3.8
2014-Jul-20 15:34N 51°21' E 004°17'5 4.7
2014-Jul-20 14:34N 51°17' E 004°20'1 0.9
2014-Jul-20 13:32N 51°16' E 004°20'0 0.0
2014-Jul-20 12:32N 51°16' E 004°20'0 0.0
2014-Jul-20 11:32N 51°16' E 004°20'0 0.0
2014-Jul-20 10:26N 51°16' E 004°20'0 0.0
2014-Jul-20 09:29N 51°16' E 004°20'0 0.0
2014-Jul-20 08:29N 51°16' E 004°20'0 0.0
2014-Jul-20 07:23N 51°16' E 004°20'0 0.0
2014-Jul-20 05:29N 51°16' E 004°20'0 0.0
2014-Jul-20 04:20N 51°16' E 004°20'0 0.0
2014-Jul-20 03:20N 51°16' E 004°20'0 0.0
2014-Jul-20 02:32N 51°16' E 004°20'0 0.0
2014-Jul-20 01:11N 51°16' E 004°20'0 0.0
2014-Jul-20 00:29N 51°16' E 004°20'0 0.0
2014-Jul-19 23:32N 51°16' E 004°20'0 0.0
2014-Jul-19 22:32N 51°16' E 004°20'0 0.0
2014-Jul-19 21:32N 51°16' E 004°20'0 0.0
2014-Jul-19 20:32N 51°16' E 004°20'0 0.0
2014-Jul-19 19:20N 51°16' E 004°20'0 0.0
2014-Jul-19 18:32N 51°16' E 004°20'0 0.0
2014-Jul-19 17:20N 51°16' E 004°20'0 0.0
2014-Jul-19 16:32N 51°16' E 004°20'0 0.0
2014-Jul-19 15:26N 51°16' E 004°20'0 0.0
2014-Jul-19 14:32N 51°16' E 004°20'0 0.0
2014-Jul-19 13:32N 51°16' E 004°20'0 0.0
2014-Jul-19 12:32N 51°16' E 004°20'0 0.0
2014-Jul-19 11:32N 51°16' E 004°20'0 0.0
2014-Jul-19 10:32N 51°16' E 004°20'0 0.0
2014-Jul-19 09:32N 51°16' E 004°20'0 0.0
2014-Jul-19 08:17N 51°16' E 004°20'0 0.0
2014-Jul-19 07:32N 51°16' E 004°20'0 0.0
2014-Jul-19 06:26N 51°16' E 004°20'0 0.0
2014-Jul-19 05:32N 51°16' E 004°20'0 0.0
2014-Jul-19 04:32N 51°16' E 004°20'0 0.5
2014-Jul-19 03:34N 51°16' E 004°20'1 0.7
2014-Jul-19 02:34N 51°17' E 004°20'8 7.8
2014-Jul-19 01:33N 51°23' E 004°13'9 9.2
2014-Jul-19 00:34N 51°26' E 003°59'10 9.9
2014-Jul-18 23:33N 51°23' E 003°43'9 8.8
2014-Jul-18 22:33N 51°25' E 003°30'10 9.7
2014-Jul-18 21:33N 51°25' E 003°14'1313.0
2014-Jul-18 20:33N 51°22' E 002°54'9 8.6
2014-Jul-18 19:28N 51°26' E 002°40'0 0.0
2014-Jul-18 18:31N 51°26' E 002°40'0 0.0
2014-Jul-18 17:04N 51°26' E 002°40'0 0.0
2014-Jul-18 16:31N 51°26' E 002°40'0 0.2
2014-Jul-18 15:31N 51°26' E 002°40'0 0.1
2014-Jul-18 14:31N 51°26' E 002°40'0 0.0
2014-Jul-18 13:28N 51°26' E 002°40'0 0.0
2014-Jul-18 12:31N 51°26' E 002°40'0 0.0
2014-Jul-18 11:31N 51°26' E 002°40'0 0.1
2014-Jul-18 10:31N 51°26' E 002°40'0 0.0
2014-Jul-18 09:22N 51°26' E 002°40'0 0.1
2014-Jul-18 08:13N 51°26' E 002°40'0 0.1
2014-Jul-18 07:31N 51°26' E 002°40'0 0.0
2014-Jul-18 06:31N 51°26' E 002°40'0 0.0
2014-Jul-18 05:10N 51°26' E 002°40'0 0.0
2014-Jul-18 04:28N 51°26' E 002°40'0 0.2
2014-Jul-18 03:28N 51°26' E 002°40'0 0.1
2014-Jul-18 02:28N 51°26' E 002°40'0 0.0
2014-Jul-18 01:25N 51°26' E 002°40'0 0.0
2014-Jul-18 00:31N 51°26' E 002°40'0 0.0
2014-Jul-17 23:31N 51°26' E 002°40'0 0.1
2014-Jul-17 22:31N 51°26' E 002°40'0 0.0
2014-Jul-17 21:31N 51°26' E 002°40'0 0.0
2014-Jul-17 20:31N 51°26' E 002°40'0 0.1
2014-Jul-17 19:25N 51°26' E 002°40'0 0.0
2014-Jul-17 18:31N 51°26' E 002°40'0 0.0
2014-Jul-17 17:22N 51°26' E 002°40'0 0.0
2014-Jul-17 16:31N 51°26' E 002°40'0 0.0
2014-Jul-17 15:28N 51°26' E 002°40'0 0.1
2014-Jul-17 14:22N 51°26' E 002°40'0 0.0
2014-Jul-17 13:28N 51°26' E 002°40'0 0.0
2014-Jul-17 12:19N 51°26' E 002°40'0 0.0
2014-Jul-17 11:28N 51°26' E 002°40'0 0.0
2014-Jul-17 10:31N 51°26' E 002°40'0 0.0
2014-Jul-17 09:31N 51°26' E 002°40'0 0.1
2014-Jul-17 08:31N 51°26' E 002°40'0 0.1
2014-Jul-17 07:28N 51°26' E 002°40'0 0.0
2014-Jul-17 06:16N 51°26' E 002°40'0 0.0
2014-Jul-17 05:13N 51°26' E 002°40'0 0.1
2014-Jul-17 04:31N 51°26' E 002°40'0 0.0
2014-Jul-17 03:22N 51°26' E 002°40'0 0.0
2014-Jul-17 02:31N 51°26' E 002°40'0 0.1
2014-Jul-17 01:31N 51°26' E 002°40'0 0.1
2014-Jul-17 00:28N 51°26' E 002°40'0 0.0
2014-Jul-16 23:31N 51°26' E 002°40'0 0.1
2014-Jul-16 22:28N 51°26' E 002°40'0 0.2
2014-Jul-16 21:31N 51°26' E 002°40'0 0.0
2014-Jul-16 20:22N 51°26' E 002°40'0 0.0
2014-Jul-16 19:28N 51°26' E 002°40'0 0.0
2014-Jul-16 17:28N 51°26' E 002°40'0 0.0
2014-Jul-16 16:25N 51°26' E 002°40'0 0.0
2014-Jul-16 15:31N 51°26' E 002°40'0 0.0
2014-Jul-16 14:16N 51°26' E 002°40'0 0.2
2014-Jul-16 13:10N 51°26' E 002°40'0 0.0
2014-Jul-16 12:25N 51°26' E 002°40'0 0.1
2014-Jul-16 11:10N 51°26' E 002°40'0 0.1
2014-Jul-16 10:07N 51°26' E 002°40'0 0.1
2014-Jul-16 09:04N 51°26' E 002°40'0 0.1
2014-Jul-16 08:31N 51°26' E 002°40'0 0.1
2014-Jul-16 07:31N 51°26' E 002°40'0 0.0
2014-Jul-16 06:22N 51°26' E 002°40'0 0.0
2014-Jul-16 05:31N 51°26' E 002°40'0 0.0
2014-Jul-16 04:25N 51°26' E 002°40'0 0.0
2014-Jul-16 03:31N 51°26' E 002°40'0 0.0
2014-Jul-16 02:19N 51°26' E 002°40'0 0.0
2014-Jul-16 01:25N 51°26' E 002°40'0 0.1
2014-Jul-16 00:25N 51°26' E 002°40'0 0.0
2014-Jul-15 22:22N 51°26' E 002°40'0 0.0
2014-Jul-15 21:31N 51°26' E 002°40'0 0.1
2014-Jul-15 20:31N 51°26' E 002°40'0 0.1
2014-Jul-15 19:28N 51°26' E 002°40'0 0.0
2014-Jul-15 18:25N 51°26' E 002°40'0 0.0
2014-Jul-15 17:19N 51°26' E 002°40'0 0.1
2014-Jul-15 16:32N 51°26' E 002°40'1110.9
2014-Jul-15 15:33N 51°36' E 002°43'1110.7
2014-Jul-15 14:29N 51°44' E 002°56'1313.5
2014-Jul-15 13:33N 51°47' E 003°16'1 1.0
2014-Jul-15 12:33N 51°47' E 003°18'0 0.0
2014-Jul-15 08:18N 51°47' E 003°18'0 0.0
2014-Jul-15 07:21N 51°47' E 003°18'0 0.0
2014-Jul-15 06:30N 51°47' E 003°18'0 0.0
2014-Jul-15 05:30N 51°47' E 003°18'0 0.0
2014-Jul-15 04:30N 51°47' E 003°18'0 0.0
2014-Jul-15 03:27N 51°47' E 003°18'0 0.0
2014-Jul-15 02:30N 51°47' E 003°18'0 0.0
2014-Jul-15 01:33N 51°47' E 003°18'0 0.1
2014-Jul-15 00:33N 51°47' E 003°18'0 0.1
2014-Jul-14 23:33N 51°47' E 003°18'0 0.0
2014-Jul-14 22:28N 51°47' E 003°18'0 0.0
2014-Jul-14 21:31N 51°47' E 003°18'0 0.1
2014-Jul-14 18:18N 51°47' E 003°18'7 9.1
2014-Jul-14 17:29N 51°47' E 003°06'1311.3
2014-Jul-14 16:23N 51°50' E 002°46'1010.9
2014-Jul-14 15:26N 51°56' E 002°33'4411.2
2014-Jul-14 11:30N 52°37' E 002°05'1212.6
2014-Jul-14 10:33N 52°47' E 001°55'1413.9
2014-Jul-14 09:33N 52°55' E 001°37'1414.1
2014-Jul-14 08:33N 53°07' E 001°24'4012.5
2014-Jul-14 05:20N 53°31' E 000°30'911.9
2014-Jul-14 04:34N 53°32' E 000°14'1110.5
2014-Jul-14 03:33N 53°36' W 000°03'7 5.9
2014-Jul-14 02:25N 53°39' W 000°13'0 0.0
2014-Jul-14 01:19N 53°39' W 000°13'0 0.0
2014-Jul-14 00:31N 53°39' W 000°13'0 0.0
2014-Jul-13 23:31N 53°39' W 000°13'0 0.0
2014-Jul-13 22:31N 53°39' W 000°13'0 0.0
2014-Jul-13 21:31N 53°39' W 000°13'0 0.0
2014-Jul-13 20:19N 53°39' W 000°13'0 0.0
2014-Jul-13 19:25N 53°39' W 000°13'0 0.0
2014-Jul-13 18:31N 53°39' W 000°13'0 0.0
2014-Jul-13 17:19N 53°39' W 000°13'0 0.0
2014-Jul-13 16:31N 53°39' W 000°13'0 0.0
2014-Jul-13 15:31N 53°39' W 000°13'0 0.0
2014-Jul-13 14:31N 53°39' W 000°13'  
Track history (hours):
 
Tides and Currents Weather Stations Pressure Air Temp Water Temp Dewpoint Dewpoint Depression Visibility Wind Speed Wind Dir Waves Ship Positions

Betagas

Last reported at 2014-Jul-23 14:27 UTC. Time now 2014-Jul-23 15:34 UTC.
Position N 53°39' W 000°13'.

Length 114.6 m; beam 15.7 m; draft 7.4 m.

Type: Tanker. MMSI: 304050636.

Date/timePositionNaut miles runAvg speedWind from/ knotsBaromVisibWave heightAir tempDewpointWater temp
2014-Jul-23 14:27N 53°39' W 000°13'0 0.0
2014-Jul-23 13:26N 53°39' W 000°13'0 0.0
2014-Jul-23 12:30N 53°39' W 000°13'0 0.0
2014-Jul-23 11:33N 53°39' W 000°13'0 0.1
2014-Jul-23 10:34N 53°39' W 000°12'8 8.2
2014-Jul-23 09:33N 53°35' E 000°00'9 9.1
2014-Jul-23 08:33N 53°33' E 000°15'9 8.4
2014-Jul-23 07:33N 53°36' E 000°29'0 0.3
2014-Jul-23 06:32N 53°36' E 000°29'0 0.1
2014-Jul-23 05:29N 53°36' E 000°29'0 0.0
2014-Jul-23 04:29N 53°36' E 000°29'0 0.0
2014-Jul-23 03:32N 53°36' E 000°29'0 0.0
2014-Jul-23 02:32N 53°36' E 000°29'0 0.0
2014-Jul-23 01:32N 53°36' E 000°29'0 0.0
2014-Jul-23 00:32N 53°36' E 000°29'0 0.0
2014-Jul-22 23:08N 53°36' E 000°29'0 0.1
2014-Jul-22 21:11N 53°36' E 000°29'0 0.0
2014-Jul-22 19:26N 53°36' E 000°29'0 0.1
2014-Jul-22 16:05N 53°36' E 000°29'0 0.0
2014-Jul-22 15:32N 53°36' E 000°29'0 0.0
2014-Jul-22 14:32N 53°36' E 000°29'0 0.0
2014-Jul-22 13:32N 53°36' E 000°29'0 0.0
2014-Jul-22 12:32N 53°36' E 000°29'0 0.1
2014-Jul-22 11:20N 53°36' E 000°29'0 0.0
2014-Jul-22 10:32N 53°36' E 000°29'0 0.1
2014-Jul-22 08:20N 53°36' E 000°29'0 0.0
2014-Jul-22 07:20N 53°36' E 000°29'0 0.0
2014-Jul-22 05:11N 53°36' E 000°29'0 0.2
2014-Jul-22 04:29N 53°36' E 000°29'0 0.0
2014-Jul-22 03:11N 53°36' E 000°29'0 0.0
2014-Jul-22 02:26N 53°36' E 000°29'0 0.0
2014-Jul-22 00:29N 53°36' E 000°29'0 0.0
2014-Jul-21 23:32N 53°36' E 000°29'0 0.0
2014-Jul-21 22:29N 53°36' E 000°29'0 0.1
2014-Jul-21 20:08N 53°36' E 000°29'0 0.0
2014-Jul-21 19:08N 53°36' E 000°29'0 0.0
2014-Jul-21 18:05N 53°36' E 000°29'0 0.0
2014-Jul-21 17:23N 53°36' E 000°29'0 0.0
2014-Jul-21 16:26N 53°36' E 000°29'0 0.2
2014-Jul-21 15:23N 53°36' E 000°28'0 0.0
2014-Jul-21 14:29N 53°36' E 000°29'0 0.0
2014-Jul-21 13:29N 53°36' E 000°29'0 0.1
2014-Jul-21 12:29N 53°36' E 000°29'7 7.6
2014-Jul-21 11:31N 53°31' E 000°37'1010.4
2014-Jul-21 10:32N 53°27' E 000°53'2611.4
2014-Jul-21 08:16N 53°08' E 001°22'912.2
2014-Jul-21 07:33N 53°00' E 001°29'1211.7
2014-Jul-21 06:33N 52°52' E 001°43'1110.6
2014-Jul-21 05:33N 52°46' E 001°58'6310.1
2014-Jul-20 23:17N 51°50' E 002°45'811.4
2014-Jul-20 22:33N 51°48' E 002°58'1111.3
2014-Jul-20 21:33N 51°44' E 003°15'1211.8
2014-Jul-20 20:33N 51°34' E 003°25'1110.7
2014-Jul-20 19:33N 51°26' E 003°38'9 9.3
2014-Jul-20 18:33N 51°21' E 003°50'9 8.8
2014-Jul-20 17:34N 51°26' E 004°02'7 7.3
2014-Jul-20 16:33N 51°23' E 004°13'4 3.8
2014-Jul-20 15:34N 51°21' E 004°17'5 4.7
2014-Jul-20 14:34N 51°17' E 004°20'1 0.9
2014-Jul-20 13:32N 51°16' E 004°20'0 0.0
2014-Jul-20 12:32N 51°16' E 004°20'0 0.0
2014-Jul-20 11:32N 51°16' E 004°20'0 0.0
2014-Jul-20 10:26N 51°16' E 004°20'0 0.0
2014-Jul-20 09:29N 51°16' E 004°20'0 0.0
2014-Jul-20 08:29N 51°16' E 004°20'0 0.0
2014-Jul-20 07:23N 51°16' E 004°20'0 0.0
2014-Jul-20 05:29N 51°16' E 004°20'0 0.0
2014-Jul-20 04:20N 51°16' E 004°20'0 0.0
2014-Jul-20 03:20N 51°16' E 004°20'0 0.0
2014-Jul-20 02:32N 51°16' E 004°20'0 0.0
2014-Jul-20 01:11N 51°16' E 004°20'0 0.0
2014-Jul-20 00:29N 51°16' E 004°20'0 0.0
2014-Jul-19 23:32N 51°16' E 004°20'0 0.0
2014-Jul-19 22:32N 51°16' E 004°20'0 0.0
2014-Jul-19 21:32N 51°16' E 004°20'0 0.0
2014-Jul-19 20:32N 51°16' E 004°20'0 0.0
2014-Jul-19 19:20N 51°16' E 004°20'0 0.0
2014-Jul-19 18:32N 51°16' E 004°20'0 0.0
2014-Jul-19 17:20N 51°16' E 004°20'0 0.0
2014-Jul-19 16:32N 51°16' E 004°20'0 0.0
2014-Jul-19 15:26N 51°16' E 004°20'0 0.0
2014-Jul-19 14:32N 51°16' E 004°20'0 0.0
2014-Jul-19 13:32N 51°16' E 004°20'0 0.0
2014-Jul-19 12:32N 51°16' E 004°20'0 0.0
2014-Jul-19 11:32N 51°16' E 004°20'0 0.0
2014-Jul-19 10:32N 51°16' E 004°20'0 0.0
2014-Jul-19 09:32N 51°16' E 004°20'0 0.0
2014-Jul-19 08:17N 51°16' E 004°20'0 0.0
2014-Jul-19 07:32N 51°16' E 004°20'0 0.0
2014-Jul-19 06:26N 51°16' E 004°20'0 0.0
2014-Jul-19 05:32N 51°16' E 004°20'0 0.0
2014-Jul-19 04:32N 51°16' E 004°20'0 0.5
2014-Jul-19 03:34N 51°16' E 004°20'1 0.7
2014-Jul-19 02:34N 51°17' E 004°20'8 7.8
2014-Jul-19 01:33N 51°23' E 004°13'9 9.2
2014-Jul-19 00:34N 51°26' E 003°59'10 9.9
2014-Jul-18 23:33N 51°23' E 003°43'9 8.8
2014-Jul-18 22:33N 51°25' E 003°30'10 9.7
2014-Jul-18 21:33N 51°25' E 003°14'1313.0
2014-Jul-18 20:33N 51°22' E 002°54'9 8.6
2014-Jul-18 19:28N 51°26' E 002°40'0 0.0
2014-Jul-18 18:31N 51°26' E 002°40'0 0.0
2014-Jul-18 17:04N 51°26' E 002°40'0 0.0
2014-Jul-18 16:31N 51°26' E 002°40'0 0.2
2014-Jul-18 15:31N 51°26' E 002°40'0 0.1
2014-Jul-18 14:31N 51°26' E 002°40'0 0.0
2014-Jul-18 13:28N 51°26' E 002°40'0 0.0
2014-Jul-18 12:31N 51°26' E 002°40'0 0.0
2014-Jul-18 11:31N 51°26' E 002°40'0 0.1
2014-Jul-18 10:31N 51°26' E 002°40'0 0.0
2014-Jul-18 09:22N 51°26' E 002°40'0 0.1
2014-Jul-18 08:13N 51°26' E 002°40'0 0.1
2014-Jul-18 07:31N 51°26' E 002°40'0 0.0
2014-Jul-18 06:31N 51°26' E 002°40'0 0.0
2014-Jul-18 05:10N 51°26' E 002°40'0 0.0
2014-Jul-18 04:28N 51°26' E 002°40'0 0.2
2014-Jul-18 03:28N 51°26' E 002°40'0 0.1
2014-Jul-18 02:28N 51°26' E 002°40'0 0.0
2014-Jul-18 01:25N 51°26' E 002°40'0 0.0
2014-Jul-18 00:31N 51°26' E 002°40'0 0.0
2014-Jul-17 23:31N 51°26' E 002°40'0 0.1
2014-Jul-17 22:31N 51°26' E 002°40'0 0.0
2014-Jul-17 21:31N 51°26' E 002°40'0 0.0
2014-Jul-17 20:31N 51°26' E 002°40'0 0.1
2014-Jul-17 19:25N 51°26' E 002°40'0 0.0
2014-Jul-17 18:31N 51°26' E 002°40'0 0.0
2014-Jul-17 17:22N 51°26' E 002°40'0 0.0
2014-Jul-17 16:31N 51°26' E 002°40'0 0.0
2014-Jul-17 15:28N 51°26' E 002°40'0 0.1
2014-Jul-17 14:22N 51°26' E 002°40'0 0.0
2014-Jul-17 13:28N 51°26' E 002°40'0 0.0
2014-Jul-17 12:19N 51°26' E 002°40'0 0.0
2014-Jul-17 11:28N 51°26' E 002°40'0 0.0
2014-Jul-17 10:31N 51°26' E 002°40'0 0.0
2014-Jul-17 09:31N 51°26' E 002°40'0 0.1
2014-Jul-17 08:31N 51°26' E 002°40'0 0.1
2014-Jul-17 07:28N 51°26' E 002°40'0 0.0
2014-Jul-17 06:16N 51°26' E 002°40'0 0.0
2014-Jul-17 05:13N 51°26' E 002°40'0 0.1
2014-Jul-17 04:31N 51°26' E 002°40'0 0.0
2014-Jul-17 03:22N 51°26' E 002°40'0 0.0
2014-Jul-17 02:31N 51°26' E 002°40'0 0.1
2014-Jul-17 01:31N 51°26' E 002°40'0 0.1
2014-Jul-17 00:28N 51°26' E 002°40'0 0.0
2014-Jul-16 23:31N 51°26' E 002°40'0 0.1
2014-Jul-16 22:28N 51°26' E 002°40'0 0.2
2014-Jul-16 21:31N 51°26' E 002°40'0 0.0
2014-Jul-16 20:22N 51°26' E 002°40'0 0.0
2014-Jul-16 19:28N 51°26' E 002°40'0 0.0
2014-Jul-16 17:28N 51°26' E 002°40'0 0.0
2014-Jul-16 16:25N 51°26' E 002°40'0 0.0
2014-Jul-16 15:31N 51°26' E 002°40'0 0.0
2014-Jul-16 14:16N 51°26' E 002°40'0 0.2
2014-Jul-16 13:10N 51°26' E 002°40'0 0.0
2014-Jul-16 12:25N 51°26' E 002°40'0 0.1
2014-Jul-16 11:10N 51°26' E 002°40'0 0.1
2014-Jul-16 10:07N 51°26' E 002°40'0 0.1
2014-Jul-16 09:04N 51°26' E 002°40'0 0.1
2014-Jul-16 08:31N 51°26' E 002°40'0 0.1
2014-Jul-16 07:31N 51°26' E 002°40'0 0.0
2014-Jul-16 06:22N 51°26' E 002°40'0 0.0
2014-Jul-16 05:31N 51°26' E 002°40'0 0.0
2014-Jul-16 04:25N 51°26' E 002°40'0 0.0
2014-Jul-16 03:31N 51°26' E 002°40'0 0.0
2014-Jul-16 02:19N 51°26' E 002°40'0 0.0
2014-Jul-16 01:25N 51°26' E 002°40'0 0.1
2014-Jul-16 00:25N 51°26' E 002°40'0 0.0
2014-Jul-15 22:22N 51°26' E 002°40'0 0.0
2014-Jul-15 21:31N 51°26' E 002°40'0 0.1
2014-Jul-15 20:31N 51°26' E 002°40'0 0.1
2014-Jul-15 19:28N 51°26' E 002°40'0 0.0
2014-Jul-15 18:25N 51°26' E 002°40'0 0.0
2014-Jul-15 17:19N 51°26' E 002°40'0 0.1
2014-Jul-15 16:32N 51°26' E 002°40'1110.9
2014-Jul-15 15:33N 51°36' E 002°43'1110.7
2014-Jul-15 14:29N 51°44' E 002°56'1313.5
2014-Jul-15 13:33N 51°47' E 003°16'1 1.0
2014-Jul-15 12:33N 51°47' E 003°18'0 0.0
2014-Jul-15 08:18N 51°47' E 003°18'0 0.0
2014-Jul-15 07:21N 51°47' E 003°18'0 0.0
2014-Jul-15 06:30N 51°47' E 003°18'0 0.0
2014-Jul-15 05:30N 51°47' E 003°18'0 0.0
2014-Jul-15 04:30N 51°47' E 003°18'0 0.0
2014-Jul-15 03:27N 51°47' E 003°18'0 0.0
2014-Jul-15 02:30N 51°47' E 003°18'0 0.0
2014-Jul-15 01:33N 51°47' E 003°18'0 0.1
2014-Jul-15 00:33N 51°47' E 003°18'0 0.1
2014-Jul-14 23:33N 51°47' E 003°18'0 0.0
2014-Jul-14 22:28N 51°47' E 003°18'0 0.0
2014-Jul-14 21:31N 51°47' E 003°18'0 0.1
2014-Jul-14 18:18N 51°47' E 003°18'7 9.1
2014-Jul-14 17:29N 51°47' E 003°06'1311.3
2014-Jul-14 16:23N 51°50' E 002°46'1010.9
2014-Jul-14 15:26N 51°56' E 002°33'4411.2
2014-Jul-14 11:30N 52°37' E 002°05'1212.6
2014-Jul-14 10:33N 52°47' E 001°55'1413.9
2014-Jul-14 09:33N 52°55' E 001°37'1414.1
2014-Jul-14 08:33N 53°07' E 001°24'4012.5
2014-Jul-14 05:20N 53°31' E 000°30'911.9
2014-Jul-14 04:34N 53°32' E 000°14'1110.5
2014-Jul-14 03:33N 53°36' W 000°03'7 5.9
2014-Jul-14 02:25N 53°39' W 000°13'0 0.0
2014-Jul-14 01:19N 53°39' W 000°13'0 0.0
2014-Jul-14 00:31N 53°39' W 000°13'0 0.0
2014-Jul-13 23:31N 53°39' W 000°13'0 0.0
2014-Jul-13 22:31N 53°39' W 000°13'0 0.0
2014-Jul-13 21:31N 53°39' W 000°13'0 0.0
2014-Jul-13 20:19N 53°39' W 000°13'0 0.0
2014-Jul-13 19:25N 53°39' W 000°13'0 0.0
2014-Jul-13 18:31N 53°39' W 000°13'0 0.0
2014-Jul-13 17:19N 53°39' W 000°13'0 0.0
2014-Jul-13 16:31N 53°39' W 000°13'0 0.0
2014-Jul-13 15:31N 53°39' W 000°13'0 0.0
2014-Jul-13 14:31N 53°39' W 000°13'  

Dump ship's entire track history